createdAt,value
2022-10-24T08:31:00.191Z,100872.72
2022-10-24T08:33:02.846Z,100872.72
2022-10-24T08:35:06.808Z,100382.34
2022-10-24T08:37:09.367Z,100355.37
2022-10-24T08:39:12.065Z,100384.94
2022-10-24T08:41:20.827Z,100399.81
2022-10-24T08:43:24.142Z,100406.28
2022-10-24T08:45:38.810Z,100393.94
2022-10-24T08:47:58.671Z,100375.28
2022-10-24T08:50:16.675Z,100363.69
2022-10-24T08:52:23.919Z,100338.41
2022-10-24T08:54:34.313Z,100314.47
2022-10-24T08:56:36.661Z,100299.97
2022-10-24T08:58:43.355Z,100285.16
2022-10-24T09:00:49.415Z,100260.25
2022-10-24T09:03:56.016Z,100254.16
2022-10-24T09:06:02.825Z,100231.84
2022-10-24T09:08:23.028Z,100217.50
2022-10-24T09:10:50.175Z,100217.44
2022-10-24T09:12:52.874Z,100224.22
2022-10-24T09:14:59.286Z,100227.44
2022-10-24T09:17:11.170Z,100227.03
2022-10-24T09:19:18.268Z,100238.91
2022-10-24T09:21:22.396Z,100239.03
2022-10-24T09:23:26.497Z,100247.78
2022-10-24T09:25:33.356Z,100252.84
2022-10-24T09:27:39.343Z,100256.09
2022-10-24T09:29:42.406Z,100261.28
2022-10-24T09:31:44.981Z,100265.19
2022-10-24T09:33:49.522Z,100270.16
2022-10-24T09:35:54.209Z,100270.19
2022-10-24T09:38:18.535Z,100257.69
2022-10-24T09:40:23.765Z,100267.69
2022-10-24T09:42:25.987Z,100281.84
2022-10-24T09:44:41.272Z,100280.44
2022-10-24T09:46:45.984Z,100290.25
2022-10-24T09:48:55.411Z,100300.69
2022-10-24T09:50:59.673Z,100307.12
2022-10-24T09:53:04.275Z,100310.72
2022-10-24T09:55:28.824Z,100305.44
2022-10-24T09:57:40.192Z,100310.94
2022-10-24T09:59:57.802Z,100305.34
2022-10-24T10:02:20.706Z,100300.84
2022-10-24T10:04:23.294Z,100296.09
2022-10-24T10:06:25.620Z,100301.78
2022-10-24T10:08:31.288Z,100313.59
2022-10-24T10:10:37.756Z,100311.41
2022-10-24T10:12:42.527Z,100307.66
2022-10-24T10:14:44.878Z,100310.38
2022-10-24T10:17:02.104Z,100315.94
2022-10-24T10:19:14.589Z,100309.13
2022-10-24T10:21:23.280Z,100300.09
2022-10-24T10:23:40.759Z,100301.44
2022-10-24T10:25:43.215Z,100296.84
2022-10-24T10:27:51.068Z,100290.31
2022-10-24T10:30:11.731Z,100289.38
2022-10-24T10:32:22.926Z,100289.16
2022-10-24T10:34:40.628Z,100291.16
2022-10-24T10:36:55.466Z,100296.53
2022-10-24T10:39:19.913Z,100294.94
2022-10-24T10:41:41.322Z,100291.56
2022-10-24T10:43:49.860Z,100294.09
2022-10-24T10:46:12.114Z,100297.47
2022-10-24T10:48:29.188Z,100293.28
2022-10-24T10:50:31.596Z,100284.28
2022-10-24T10:52:45.509Z,100285.47
2022-10-24T10:55:13.230Z,100268.25
2022-10-24T10:57:21.624Z,100264.66
2022-10-24T10:59:39.572Z,100268.31
2022-10-24T11:02:11.541Z,100263.69
2022-10-24T11:04:38.323Z,100265.06
2022-10-24T11:07:02.959Z,100253.00
2022-10-24T11:09:23.270Z,100255.56
2022-10-24T11:11:31.618Z,100255.38
2022-10-24T11:13:42.205Z,100260.41
2022-10-24T11:15:49.827Z,100257.44
2022-10-24T11:18:05.593Z,100262.75
2022-10-24T11:20:15.007Z,100252.22
2022-10-24T11:22:26.061Z,100252.56
2022-10-24T11:24:34.209Z,100249.22
2022-10-24T11:26:48.123Z,100258.13
2022-10-24T11:29:09.401Z,100253.50
2022-10-24T11:31:18.067Z,100265.72
2022-10-24T11:33:32.496Z,100258.50
2022-10-24T11:35:40.453Z,100265.41
2022-10-24T11:37:49.707Z,100269.72
2022-10-24T11:39:57.371Z,100255.94
2022-10-24T11:42:07.658Z,100253.84
2022-10-24T11:44:41.414Z,100249.34
2022-10-24T11:46:51.846Z,100250.81
2022-10-24T11:49:10.051Z,100251.97
2022-10-24T11:51:22.380Z,100250.31
2022-10-24T11:53:33.318Z,100248.53
2022-10-24T11:55:39.909Z,100257.41
2022-10-24T11:57:46.304Z,100261.03
2022-10-24T11:59:53.202Z,100266.63
2022-10-24T12:01:55.482Z,100268.09
2022-10-24T12:04:35.710Z,100265.19
2022-10-24T12:07:05.335Z,100262.66
2022-10-24T12:09:16.628Z,100272.81
2022-10-24T12:11:22.025Z,100268.97
2022-10-24T12:13:43.137Z,100272.69
2022-10-24T12:16:09.160Z,100266.44
2022-10-24T12:18:33.194Z,100262.72
2022-10-24T12:20:37.012Z,100250.75
2022-10-24T12:22:43.997Z,100240.47
2022-10-24T12:24:46.763Z,100233.06
2022-10-24T12:26:58.421Z,100244.06
2022-10-24T12:29:23.358Z,100242.44
2022-10-24T12:31:37.666Z,100248.62
2022-10-24T12:33:40.552Z,100246.28
2022-10-24T12:35:47.111Z,100230.97
2022-10-24T12:37:49.345Z,100221.06
2022-10-24T12:39:56.195Z,100224.28
2022-10-24T12:42:01.119Z,100235.00
2022-10-24T12:44:36.092Z,100235.94
2022-10-24T12:46:38.460Z,100231.34
2022-10-24T12:49:01.148Z,100234.22
2022-10-24T12:51:06.257Z,100233.53
2022-10-24T12:53:19.657Z,100240.81
2022-10-24T12:55:39.639Z,100238.28
2022-10-24T12:57:46.163Z,100229.31
2022-10-24T12:59:52.989Z,100209.19
2022-10-24T13:02:11.027Z,100200.47
2022-10-24T13:04:55.696Z,100192.13
2022-10-24T13:07:10.084Z,100196.16
2022-10-24T13:10:00.355Z,100199.56
2022-10-24T13:12:43.178Z,100201.56
2022-10-24T13:14:51.260Z,100210.06
2022-10-24T13:17:15.143Z,100227.81
2022-10-24T13:19:24.281Z,100225.03
2022-10-24T13:21:32.323Z,100225.91
2022-10-24T13:23:35.915Z,100219.66
2022-10-24T13:25:39.752Z,100206.87
2022-10-24T13:27:42.060Z,100207.06
2022-10-24T13:29:44.331Z,100200.59
2022-10-24T13:31:48.318Z,100193.78
2022-10-24T13:33:53.252Z,100190.19
2022-10-24T13:36:18.097Z,100195.69
2022-10-24T13:40:32.583Z,100194.69
2022-10-24T13:42:43.382Z,100207.13
2022-10-24T13:44:49.382Z,100211.31
2022-10-24T13:47:18.307Z,100213.25
2022-10-24T13:49:34.491Z,100211.00
2022-10-24T13:51:49.100Z,100213.16
2022-10-24T13:53:56.493Z,100217.03
2022-10-24T13:56:10.416Z,100210.91
2022-10-24T13:58:16.744Z,100207.94
2022-10-24T14:00:33.085Z,100217.00
2022-10-24T14:02:41.880Z,100202.75
2022-10-24T14:04:47.343Z,100190.66
2022-10-24T14:06:49.669Z,100194.09
2022-10-24T14:09:05.499Z,100196.50
2022-10-24T14:11:19.731Z,100184.78
2022-10-24T14:13:27.095Z,100188.03
2022-10-24T14:15:33.674Z,100187.88
2022-10-24T14:17:36.022Z,100188.03
2022-10-24T14:19:46.568Z,100179.03
2022-10-24T14:21:49.761Z,100181.38
2022-10-24T14:23:57.651Z,100184.38
2022-10-24T14:26:03.679Z,100180.09
2022-10-24T14:28:17.041Z,100167.88
2022-10-24T14:30:22.685Z,100164.66
2022-10-24T14:32:26.798Z,100174.50
2022-10-24T14:34:35.223Z,100177.34
2022-10-24T14:36:39.183Z,100185.72
2022-10-24T14:38:42.006Z,100167.16
2022-10-24T14:40:46.407Z,100182.97
2022-10-24T14:42:49.393Z,100174.59
2022-10-24T14:44:56.175Z,100180.81
2022-10-24T14:47:03.616Z,100185.38
2022-10-24T14:49:36.664Z,100174.94
2022-10-24T14:51:41.490Z,100167.66
2022-10-24T14:53:45.895Z,100160.94
2022-10-24T14:55:53.097Z,100165.50
2022-10-24T14:57:57.033Z,100161.19
2022-10-24T15:00:07.546Z,100172.56
2022-10-24T15:02:28.856Z,100172.06
2022-10-24T15:04:38.827Z,100165.63
2022-10-24T15:06:43.513Z,100163.56
2022-10-24T15:08:50.535Z,100165.50
2022-10-24T15:11:21.767Z,100171.84
2022-10-24T15:13:25.565Z,100175.44
2022-10-24T15:15:52.324Z,100181.19
2022-10-24T15:18:22.670Z,100172.06
2022-10-24T15:20:30.211Z,100177.69
2022-10-24T15:22:37.643Z,100171.72
2022-10-24T15:24:44.154Z,100172.91
2022-10-24T15:26:47.115Z,100171.94
2022-10-24T15:28:55.268Z,100171.94
2022-10-24T15:30:57.541Z,100172.06
2022-10-24T15:33:02.356Z,100167.97
2022-10-24T15:35:05.107Z,100161.78
2022-10-24T15:37:17.655Z,100158.06
2022-10-24T15:39:24.622Z,100154.94
2022-10-24T15:41:27.804Z,100154.12
2022-10-24T15:43:30.128Z,100151.00
2022-10-24T15:45:33.311Z,100160.84
2022-10-24T15:47:35.547Z,100155.78
2022-10-24T15:49:37.855Z,100150.38
2022-10-24T15:51:46.016Z,100155.19
2022-10-24T15:53:53.773Z,100155.41
2022-10-24T15:55:56.029Z,100164.84
2022-10-24T15:58:03.151Z,100163.31
2022-10-24T16:00:05.875Z,100162.94
2022-10-24T16:02:21.536Z,100156.03
2022-10-24T16:04:24.268Z,100158.28
2022-10-24T16:06:27.658Z,100154.31
2022-10-24T16:08:30.607Z,100156.75
2022-10-24T16:10:33.208Z,100156.59
2022-10-24T16:12:35.512Z,100151.19
2022-10-24T16:14:37.790Z,100155.16
2022-10-24T16:16:40.542Z,100159.84
2022-10-24T16:18:43.240Z,100172.44
2022-10-24T16:20:45.543Z,100161.91
2022-10-24T16:22:48.776Z,100163.19
2022-10-24T16:24:51.207Z,100162.31
2022-10-24T16:26:53.802Z,100173.47
2022-10-24T16:28:56.383Z,100170.22
2022-10-24T16:30:58.638Z,100168.56
2022-10-24T16:33:01.452Z,100170.59
2022-10-24T16:35:04.716Z,100163.50
2022-10-24T16:37:06.936Z,100167.84
2022-10-24T16:39:09.462Z,100167.59
2022-10-24T16:41:20.702Z,100181.12
2022-10-24T16:43:22.789Z,100183.41
2022-10-24T16:45:26.033Z,100178.25
2022-10-24T16:47:29.708Z,100179.22
2022-10-24T16:49:32.263Z,100162.47
2022-10-24T16:51:37.331Z,100174.19
2022-10-24T16:53:42.417Z,100176.34
2022-10-24T16:55:53.008Z,100168.47
2022-10-24T16:57:56.301Z,100161.28
2022-10-24T16:59:58.893Z,100156.38
2022-10-24T17:02:01.376Z,100168.22
2022-10-24T17:04:03.824Z,100174.94
2022-10-24T17:06:07.440Z,100169.56
2022-10-24T17:08:10.229Z,100174.22
2022-10-24T17:10:14.134Z,100170.13
2022-10-24T17:12:17.261Z,100161.28
2022-10-24T17:14:19.699Z,100159.81
2022-10-24T17:16:22.197Z,100157.91
2022-10-24T17:18:26.668Z,100159.94
2022-10-24T17:20:29.152Z,100159.81
2022-10-24T17:24:44.985Z,100170.22
2022-10-24T17:26:48.689Z,100171.63
2022-10-24T17:28:51.627Z,100171.53
2022-10-24T17:30:54.383Z,100177.25
2022-10-24T17:32:57.624Z,100161.22
2022-10-24T17:35:03.272Z,100160.13
2022-10-24T17:37:33.066Z,100165.25
2022-10-24T17:39:50.115Z,100169.09
2022-10-24T17:41:55.013Z,100174.72
2022-10-24T17:43:57.820Z,100179.91
2022-10-24T17:46:00.711Z,100179.72
2022-10-24T17:48:03.119Z,100176.72
2022-10-24T17:50:06.898Z,100179.22
2022-10-24T17:52:16.669Z,100170.50
2022-10-24T17:54:21.523Z,100180.13
2022-10-24T17:56:25.946Z,100180.91
2022-10-24T17:58:28.824Z,100184.44
2022-10-24T18:00:31.672Z,100178.84
2022-10-24T18:02:35.342Z,100178.97
2022-10-24T18:04:40.936Z,100184.97
2022-10-24T18:06:43.693Z,100194.19
2022-10-24T18:08:48.224Z,100194.59
2022-10-24T18:10:50.917Z,100194.25
2022-10-24T18:12:53.738Z,100184.06
2022-10-24T18:14:59.413Z,100187.28
2022-10-24T18:17:02.110Z,100199.09
2022-10-24T18:19:09.956Z,100204.81
2022-10-24T18:21:22.979Z,100210.31
2022-10-24T18:23:25.251Z,100211.44
2022-10-24T18:25:28.227Z,100207.44
2022-10-24T18:27:31.481Z,100200.44
2022-10-24T18:29:34.231Z,100194.75
2022-10-24T18:31:37.348Z,100193.16
2022-10-24T18:33:43.555Z,100194.34
2022-10-24T18:35:46.418Z,100182.66
2022-10-24T18:37:50.131Z,100188.94
2022-10-24T18:39:54.088Z,100189.00
2022-10-24T18:42:04.718Z,100185.94
2022-10-24T18:44:31.456Z,100193.84
2022-10-24T18:46:34.920Z,100199.69
2022-10-24T18:48:37.729Z,100201.50
2022-10-24T18:50:40.720Z,100200.53
2022-10-24T18:53:05.612Z,100198.75
2022-10-24T18:55:20.059Z,100192.13
2022-10-24T18:57:28.164Z,100192.91
2022-10-24T18:59:32.672Z,100189.44
2022-10-24T19:01:46.285Z,100179.28
2022-10-24T19:03:49.859Z,100169.19
2022-10-24T19:06:00.929Z,100156.94
2022-10-24T19:08:04.001Z,100158.87
2022-10-24T19:10:07.176Z,100149.22
2022-10-24T19:12:10.420Z,100158.25
2022-10-24T19:14:15.551Z,100156.88
2022-10-24T19:16:30.067Z,100160.94
2022-10-24T19:18:37.434Z,100151.09
2022-10-24T19:20:40.175Z,100150.00
2022-10-24T19:22:43.620Z,100158.47
2022-10-24T19:24:46.444Z,100160.13
2022-10-24T19:26:49.914Z,100151.19
2022-10-24T19:28:52.511Z,100149.00
2022-10-24T19:30:55.870Z,100147.84
2022-10-24T19:32:58.238Z,100155.50
2022-10-24T19:35:01.580Z,100143.75
2022-10-24T19:37:05.359Z,100149.13
2022-10-24T19:39:08.216Z,100145.31
2022-10-24T19:41:12.160Z,100142.31
2022-10-24T19:43:15.319Z,100142.19
2022-10-24T19:45:20.263Z,100143.41
2022-10-24T19:47:25.103Z,100146.72
2022-10-24T19:49:28.203Z,100148.50
2022-10-24T19:51:34.190Z,100148.25
2022-10-24T19:53:39.371Z,100145.53
2022-10-24T19:55:44.157Z,100145.31
2022-10-24T19:57:47.069Z,100139.22
2022-10-24T19:59:49.929Z,100153.00
2022-10-24T20:01:55.752Z,100143.53
2022-10-24T20:04:00.653Z,100145.59
2022-10-24T20:06:03.975Z,100138.66
2022-10-24T20:08:06.662Z,100135.09
2022-10-24T20:10:09.808Z,100121.09
2022-10-24T20:12:12.836Z,100098.94
2022-10-24T20:14:15.538Z,100098.31
2022-10-24T20:16:19.032Z,100105.75
2022-10-24T20:18:23.191Z,100123.66
2022-10-24T20:20:25.805Z,100126.91
2022-10-24T20:22:28.489Z,100136.97
2022-10-24T20:24:30.890Z,100145.41
2022-10-24T20:26:34.162Z,100155.72
2022-10-24T20:28:43.720Z,100152.09
2022-10-24T20:30:47.601Z,100146.44
2022-10-24T20:32:50.250Z,100145.63
2022-10-24T20:34:52.832Z,100140.28
2022-10-24T20:36:55.049Z,100137.34
2022-10-24T20:39:01.375Z,100137.34
2022-10-24T20:41:04.019Z,100128.59
2022-10-24T20:43:07.329Z,100134.50
2022-10-24T20:45:09.764Z,100141.13
2022-10-24T20:47:12.577Z,100135.31
2022-10-24T20:49:15.233Z,100132.88
2022-10-24T20:51:19.831Z,100141.06
2022-10-24T20:53:22.695Z,100143.00
2022-10-24T20:55:39.614Z,100147.81
2022-10-24T20:57:45.582Z,100139.69
2022-10-24T20:59:48.097Z,100147.88
2022-10-24T21:01:50.511Z,100138.25
2022-10-24T21:03:54.088Z,100134.84
2022-10-24T21:05:57.122Z,100141.78
2022-10-24T21:07:59.731Z,100141.56
2022-10-24T21:10:04.300Z,100141.50
2022-10-24T21:12:07.673Z,100135.37
2022-10-24T21:14:13.964Z,100135.41
2022-10-24T21:16:16.415Z,100132.41
2022-10-24T21:18:18.891Z,100129.22
2022-10-24T21:20:21.163Z,100125.31
2022-10-24T21:22:23.342Z,100125.97
2022-10-24T21:24:25.851Z,100129.88
2022-10-24T21:26:28.115Z,100120.59
2022-10-24T21:28:30.392Z,100122.22
2022-10-24T21:30:33.662Z,100127.84
2022-10-24T21:32:35.890Z,100125.69
2022-10-24T21:34:38.224Z,100127.31
2022-10-24T21:36:40.687Z,100127.72
2022-10-24T21:38:46.766Z,100120.06
2022-10-24T21:40:48.925Z,100130.84
2022-10-24T21:42:51.441Z,100141.69
2022-10-24T21:44:53.722Z,100147.84
2022-10-24T21:46:55.970Z,100147.09
2022-10-24T21:48:58.440Z,100141.34
2022-10-24T21:51:33.493Z,100143.28
2022-10-24T21:53:47.848Z,100139.34
2022-10-24T21:55:50.377Z,100154.19
2022-10-24T21:57:52.599Z,100165.44
2022-10-24T21:59:54.781Z,100173.34
